createdAt,value
2022-11-01T00:00:36.288Z,11.70
2022-11-01T00:03:06.009Z,12.00
2022-11-01T00:05:34.273Z,12.10
2022-11-01T00:08:02.782Z,12.10
2022-11-01T00:10:31.633Z,12.10
2022-11-01T00:13:00.252Z,12.20
2022-11-01T00:15:28.865Z,12.10
2022-11-01T00:17:57.536Z,12.10
2022-11-01T00:20:27.707Z,12.00
2022-11-01T00:23:02.079Z,11.90
2022-11-01T00:25:30.582Z,11.90
2022-11-01T00:27:58.981Z,11.90
2022-11-01T00:30:27.591Z,12.00
2022-11-01T00:32:58.252Z,11.90
2022-11-01T00:35:27.811Z,11.70
2022-11-01T00:37:56.653Z,11.60
2022-11-01T00:40:27.057Z,11.60
2022-11-01T00:42:55.571Z,11.70
2022-11-01T00:45:24.084Z,11.60
2022-11-01T00:47:52.249Z,11.60
2022-11-01T00:50:20.812Z,11.60
2022-11-01T00:52:51.678Z,11.70
2022-11-01T00:55:20.686Z,11.70
2022-11-01T00:57:49.166Z,11.60
2022-11-01T01:00:17.867Z,11.60
2022-11-01T01:02:46.161Z,11.50
2022-11-01T01:05:14.478Z,11.40
2022-11-01T01:07:42.892Z,11.30
2022-11-01T01:10:12.537Z,11.50
2022-11-01T01:12:40.843Z,11.50
2022-11-01T01:15:10.658Z,11.50
2022-11-01T01:17:39.240Z,11.60
2022-11-01T01:20:09.202Z,11.30
2022-11-01T01:22:37.428Z,11.20
2022-11-01T01:25:06.135Z,11.20
2022-11-01T01:27:35.779Z,11.20
2022-11-01T01:30:04.412Z,11.30
2022-11-01T01:32:32.832Z,11.30
2022-11-01T01:35:01.732Z,11.20
2022-11-01T01:37:29.976Z,11.20
2022-11-01T01:39:58.843Z,11.30
2022-11-01T01:42:31.453Z,11.30
2022-11-01T01:45:43.747Z,11.40
2022-11-01T01:48:18.433Z,11.40
2022-11-01T01:50:50.385Z,11.30
2022-11-01T01:53:24.973Z,11.20
2022-11-01T01:55:58.656Z,11.30
2022-11-01T01:58:31.703Z,11.30
2022-11-01T02:01:02.211Z,11.40
2022-11-01T02:03:33.396Z,11.30
2022-11-01T02:06:08.611Z,11.40
2022-11-01T02:08:37.982Z,11.60
2022-11-01T02:11:08.527Z,11.60
2022-11-01T02:13:37.656Z,11.70
2022-11-01T02:16:29.693Z,11.70
2022-11-01T02:19:12.175Z,11.80
2022-11-01T02:21:51.780Z,11.80
2022-11-01T02:25:02.598Z,11.90
2022-11-01T02:27:43.378Z,12.10
2022-11-01T02:30:16.080Z,12.30
2022-11-01T02:33:14.678Z,12.60
2022-11-01T02:35:56.599Z,13.00
2022-11-01T02:38:29.387Z,13.40
2022-11-01T02:41:05.196Z,13.50
2022-11-01T02:43:41.863Z,13.60
2022-11-01T02:46:28.997Z,13.80
2022-11-01T02:49:00.275Z,13.90
2022-11-01T02:51:31.128Z,14.00
2022-11-01T02:54:02.977Z,13.80
2022-11-01T02:56:35.920Z,13.70
2022-11-01T02:59:04.552Z,13.60
2022-11-01T03:01:36.044Z,13.40
2022-11-01T03:04:05.843Z,13.30
2022-11-01T03:06:38.737Z,13.10
2022-11-01T03:09:10.433Z,13.30
2022-11-01T03:11:47.973Z,13.80
2022-11-01T03:14:24.957Z,14.00
2022-11-01T03:17:01.476Z,14.10
2022-11-01T03:19:39.279Z,14.00
2022-11-01T03:22:12.482Z,14.00
2022-11-01T03:24:47.471Z,14.10
2022-11-01T03:27:21.283Z,14.20
2022-11-01T03:29:56.883Z,14.20
2022-11-01T03:32:29.352Z,14.20
2022-11-01T03:35:02.658Z,14.30
2022-11-01T03:37:34.012Z,14.20
2022-11-01T03:40:05.941Z,14.10
2022-11-01T03:42:36.432Z,14.20
2022-11-01T03:45:10.885Z,14.00
2022-11-01T03:47:39.701Z,14.00
2022-11-01T03:50:17.759Z,14.10
2022-11-01T03:52:46.607Z,14.40
2022-11-01T03:55:19.666Z,14.40
2022-11-01T03:57:49.524Z,14.40
2022-11-01T04:00:21.047Z,14.50
2022-11-01T04:02:50.582Z,14.60
2022-11-01T04:05:21.169Z,14.60
2022-11-01T04:07:51.480Z,14.70
2022-11-01T04:10:20.962Z,14.70
2022-11-01T04:12:51.289Z,14.80
2022-11-01T04:15:39.938Z,14.80
2022-11-01T04:18:32.729Z,14.70
2022-11-01T04:21:05.260Z,14.80
2022-11-01T04:23:34.175Z,14.70
2022-11-01T04:26:02.485Z,14.70
2022-11-01T04:28:30.645Z,14.70
2022-11-01T04:30:59.576Z,14.70
2022-11-01T04:33:29.424Z,14.70
2022-11-01T04:35:57.961Z,14.60
2022-11-01T04:38:27.936Z,14.50
2022-11-01T04:40:56.182Z,14.50
2022-11-01T04:43:25.010Z,14.50
2022-11-01T04:45:56.730Z,14.50
2022-11-01T04:48:26.265Z,14.50
2022-11-01T04:50:55.123Z,14.50
2022-11-01T04:53:23.868Z,14.50
2022-11-01T04:55:53.732Z,14.30
2022-11-01T04:58:22.335Z,14.30
2022-11-01T05:00:51.482Z,14.30
2022-11-01T05:03:20.220Z,14.30
2022-11-01T05:05:48.530Z,14.30
2022-11-01T05:08:16.784Z,14.40
2022-11-01T05:10:46.044Z,14.30
2022-11-01T05:13:16.109Z,14.40
2022-11-01T05:16:06.246Z,14.30
2022-11-01T05:18:32.580Z,14.30
2022-11-01T05:21:00.895Z,14.30
2022-11-01T05:23:29.069Z,14.20
2022-11-01T05:25:58.527Z,14.10
2022-11-01T05:28:28.116Z,13.90
2022-11-01T05:30:56.380Z,13.80
2022-11-01T05:33:24.731Z,13.80
2022-11-01T05:35:54.195Z,13.90
2022-11-01T05:38:22.466Z,13.80
2022-11-01T05:40:50.756Z,13.80
2022-11-01T05:43:19.078Z,13.80
2022-11-01T05:45:48.762Z,13.80
2022-11-01T05:48:17.397Z,13.80
2022-11-01T05:50:46.917Z,13.70
2022-11-01T05:53:15.818Z,13.60
2022-11-01T05:55:44.009Z,13.60
2022-11-01T05:58:12.708Z,13.60
2022-11-01T06:00:40.953Z,13.50
2022-11-01T06:03:10.564Z,13.40
2022-11-01T06:05:39.780Z,13.40
2022-11-01T06:08:08.381Z,13.50
2022-11-01T06:10:36.930Z,13.50
2022-11-01T06:13:05.295Z,13.60
2022-11-01T06:15:37.158Z,13.50
2022-11-01T06:18:08.527Z,13.60
2022-11-01T06:20:38.898Z,13.60
2022-11-01T06:23:11.615Z,13.60
2022-11-01T06:25:39.946Z,13.60
2022-11-01T06:28:08.311Z,13.70
2022-11-01T06:30:38.944Z,13.80
2022-11-01T06:33:09.447Z,13.70
2022-11-01T06:35:39.274Z,13.70
2022-11-01T06:38:08.533Z,13.80
2022-11-01T06:40:37.676Z,13.80
2022-11-01T06:43:07.348Z,13.80
2022-11-01T06:45:35.579Z,13.90
2022-11-01T06:48:04.196Z,14.00
2022-11-01T06:50:33.231Z,14.00
2022-11-01T06:53:03.622Z,14.00
2022-11-01T06:55:31.964Z,14.10
2022-11-01T06:58:02.462Z,14.00
2022-11-01T07:00:32.028Z,14.10
2022-11-01T07:03:01.507Z,14.10
2022-11-01T07:05:34.381Z,14.20
2022-11-01T07:08:08.326Z,14.10
2022-11-01T07:10:38.186Z,14.20
2022-11-01T07:13:08.226Z,14.20
2022-11-01T07:15:37.291Z,14.20
2022-11-01T07:18:08.230Z,14.10
2022-11-01T07:20:41.961Z,14.10
2022-11-01T07:23:14.649Z,14.20
2022-11-01T07:25:43.959Z,14.20
2022-11-01T07:28:12.759Z,14.20
2022-11-01T07:30:41.095Z,14.20
2022-11-01T07:33:09.406Z,14.20
2022-11-01T07:35:38.853Z,14.20
2022-11-01T07:38:11.405Z,14.20
2022-11-01T07:40:42.534Z,14.20
2022-11-01T07:43:11.438Z,14.30
2022-11-01T07:45:39.713Z,14.30
2022-11-01T07:48:12.156Z,14.40
2022-11-01T07:50:42.094Z,14.30
2022-11-01T07:53:12.448Z,14.30
2022-11-01T07:55:43.000Z,14.40
2022-11-01T07:58:11.986Z,14.40
2022-11-01T08:00:43.042Z,14.40
2022-11-01T08:03:13.925Z,14.50
2022-11-01T08:05:43.484Z,14.50
2022-11-01T08:08:12.130Z,14.40
2022-11-01T08:10:42.508Z,14.50
2022-11-01T08:13:15.820Z,14.60
2022-11-01T08:15:45.175Z,14.60
2022-11-01T08:18:13.594Z,14.50
2022-11-01T08:20:42.092Z,14.50
2022-11-01T08:23:11.217Z,14.50
2022-11-01T08:25:41.473Z,14.50
2022-11-01T08:28:14.490Z,14.50
2022-11-01T08:30:44.287Z,14.60
2022-11-01T08:33:13.286Z,14.60
2022-11-01T08:35:45.849Z,14.70
2022-11-01T08:38:17.276Z,14.70
2022-11-01T08:40:46.867Z,14.70
2022-11-01T08:43:15.362Z,14.80
2022-11-01T08:45:44.108Z,14.80
2022-11-01T08:48:12.614Z,14.90
2022-11-01T08:50:41.148Z,14.80
2022-11-01T08:53:11.330Z,14.70
2022-11-01T08:55:40.284Z,14.70
2022-11-01T08:58:10.677Z,14.60
2022-11-01T09:00:39.940Z,14.70
2022-11-01T09:03:08.253Z,14.70
2022-11-01T09:05:37.190Z,14.80
2022-11-01T09:08:08.842Z,14.80
2022-11-01T09:10:37.243Z,14.80
2022-11-01T09:13:05.846Z,14.70
2022-11-01T09:15:35.828Z,14.70
2022-11-01T09:18:07.835Z,14.70
2022-11-01T09:20:36.176Z,14.70
2022-11-01T09:23:05.277Z,14.70
2022-11-01T09:25:34.124Z,14.70
2022-11-01T09:28:02.664Z,14.70
2022-11-01T09:30:31.114Z,14.80
2022-11-01T09:33:04.977Z,14.80
2022-11-01T09:35:34.385Z,14.80
2022-11-01T09:38:04.019Z,14.90
2022-11-01T09:40:39.178Z,14.90
2022-11-01T09:43:10.024Z,15.00
2022-11-01T09:45:38.923Z,14.90
2022-11-01T09:48:09.323Z,14.90
2022-11-01T09:50:40.555Z,14.90
2022-11-01T09:53:15.136Z,15.00
2022-11-01T09:55:50.409Z,15.00
2022-11-01T09:58:30.183Z,15.00
2022-11-01T10:01:11.702Z,15.00
2022-11-01T10:03:53.790Z,15.00
2022-11-01T10:06:26.097Z,15.10
2022-11-01T10:09:05.935Z,15.00
2022-11-01T10:11:52.413Z,15.00
2022-11-01T10:14:41.400Z,15.00
2022-11-01T10:17:14.636Z,15.00
2022-11-01T10:19:48.296Z,15.10
2022-11-01T10:22:19.294Z,15.20
2022-11-01T10:24:53.125Z,15.30
2022-11-01T10:27:33.051Z,15.30
2022-11-01T10:30:07.989Z,15.30
2022-11-01T10:32:44.066Z,15.20
2022-11-01T10:35:19.067Z,15.20
2022-11-01T10:38:04.346Z,15.30
2022-11-01T10:40:47.776Z,15.50
2022-11-01T10:43:21.275Z,15.60
2022-11-01T10:45:52.820Z,15.60
2022-11-01T10:48:31.360Z,15.70
2022-11-01T10:51:04.646Z,15.70
2022-11-01T10:53:34.593Z,16.00
2022-11-01T10:56:09.007Z,16.10
2022-11-01T10:58:41.540Z,16.40
2022-11-01T11:01:14.128Z,16.70
2022-11-01T11:03:47.465Z,16.60
2022-11-01T11:06:18.866Z,16.90
2022-11-01T11:08:51.607Z,16.80
2022-11-01T11:11:28.177Z,16.50
2022-11-01T11:13:57.169Z,16.50
2022-11-01T11:16:32.356Z,16.80
2022-11-01T11:19:03.200Z,16.80
2022-11-01T11:21:36.138Z,16.90
2022-11-01T11:24:04.972Z,16.90
2022-11-01T11:29:29.185Z,17.50
2022-11-01T11:31:59.891Z,17.80
2022-11-01T11:34:30.309Z,17.70
2022-11-01T11:37:01.946Z,17.70
2022-11-01T11:39:31.809Z,17.70
2022-11-01T11:42:16.348Z,17.50
2022-11-01T11:44:49.197Z,17.60
2022-11-01T11:47:24.599Z,17.60
2022-11-01T11:49:54.216Z,17.90
2022-11-01T11:52:28.783Z,17.80
2022-11-01T11:54:58.045Z,17.90
2022-11-01T11:57:30.124Z,17.90
2022-11-01T12:00:05.082Z,18.20
2022-11-01T12:02:36.883Z,18.50
2022-11-01T12:05:08.816Z,18.50
2022-11-01T12:07:48.860Z,18.60
2022-11-01T12:10:32.485Z,18.50
2022-11-01T12:13:01.827Z,18.60
2022-11-01T12:15:35.771Z,18.80
2022-11-01T12:18:15.884Z,18.70
2022-11-01T12:20:49.765Z,18.40
2022-11-01T12:23:29.833Z,18.40
2022-11-01T12:26:00.771Z,18.50
2022-11-01T12:28:35.794Z,18.40
2022-11-01T12:31:09.956Z,18.30
2022-11-01T12:33:42.324Z,18.40
2022-11-01T12:36:12.621Z,18.30
2022-11-01T12:38:48.094Z,18.20
2022-11-01T12:41:30.318Z,18.30
2022-11-01T12:44:07.201Z,18.50
2022-11-01T12:46:40.937Z,18.50
2022-11-01T12:49:17.524Z,18.50
2022-11-01T12:51:49.691Z,18.60
2022-11-01T12:54:26.876Z,19.20
2022-11-01T12:56:57.070Z,19.10
2022-11-01T12:59:29.158Z,19.60
2022-11-01T13:02:03.581Z,19.80
2022-11-01T13:04:36.645Z,19.50
2022-11-01T13:07:17.815Z,19.50
2022-11-01T13:09:56.592Z,19.20
2022-11-01T13:12:34.899Z,19.10
2022-11-01T13:15:11.717Z,19.20
2022-11-01T13:17:47.362Z,19.10
2022-11-01T13:20:34.850Z,19.10
2022-11-01T13:23:18.373Z,18.80
2022-11-01T13:25:56.537Z,18.80
2022-11-01T13:28:57.966Z,18.70
2022-11-01T13:31:38.678Z,18.80
2022-11-01T13:34:19.293Z,19.00
2022-11-01T13:36:57.643Z,19.10
2022-11-01T13:39:37.695Z,19.20
2022-11-01T13:42:12.729Z,19.30
2022-11-01T13:44:52.609Z,19.60
2022-11-01T13:47:35.613Z,19.40
2022-11-01T13:50:32.662Z,19.60
2022-11-01T13:53:08.172Z,20.00
2022-11-01T13:55:42.408Z,20.50
2022-11-01T13:58:19.093Z,20.80
2022-11-01T14:00:50.117Z,21.10
2022-11-01T14:03:22.673Z,20.60
2022-11-01T14:06:24.480Z,20.80
2022-11-01T14:09:12.830Z,20.50
2022-11-01T14:11:48.915Z,20.00
2022-11-01T14:15:00.751Z,19.10
2022-11-01T14:18:08.338Z,18.80
2022-11-01T14:20:58.069Z,18.40
2022-11-01T14:24:02.780Z,18.40
2022-11-01T14:27:05.527Z,18.10
2022-11-01T14:29:36.555Z,18.10
2022-11-01T14:32:05.791Z,17.90
2022-11-01T14:34:37.210Z,17.70
2022-11-01T14:37:16.352Z,17.60
2022-11-01T14:40:06.206Z,17.60
2022-11-01T14:42:42.992Z,17.50
2022-11-01T14:45:36.866Z,17.40
2022-11-01T14:48:16.367Z,17.50
2022-11-01T14:50:54.957Z,17.50
2022-11-01T14:53:28.667Z,17.30
2022-11-01T14:56:09.409Z,17.20
2022-11-01T14:58:38.349Z,17.10
2022-11-01T15:01:08.590Z,17.00
2022-11-01T15:03:37.227Z,16.80
2022-11-01T15:06:22.945Z,16.60
2022-11-01T15:08:51.956Z,16.50
2022-11-01T15:11:21.066Z,16.30
2022-11-01T15:13:49.744Z,16.20
2022-11-01T15:16:23.114Z,16.10
2022-11-01T15:18:59.387Z,16.00
2022-11-01T15:21:31.299Z,15.80
2022-11-01T15:24:02.583Z,15.60
2022-11-01T15:26:34.172Z,15.70
2022-11-01T15:29:05.379Z,15.50
2022-11-01T15:31:35.850Z,15.40
2022-11-01T15:34:07.467Z,15.40
2022-11-01T15:36:38.680Z,15.40
2022-11-01T15:39:19.562Z,15.30
2022-11-01T15:41:48.509Z,15.30
2022-11-01T15:44:21.931Z,15.20
2022-11-01T15:46:51.610Z,15.20
2022-11-01T15:49:22.124Z,15.10
2022-11-01T15:51:55.500Z,14.90
2022-11-01T15:54:36.967Z,14.80
2022-11-01T15:57:12.489Z,14.80
2022-11-01T15:59:51.258Z,14.70
2022-11-01T16:02:25.998Z,14.50
2022-11-01T16:04:54.653Z,14.50
2022-11-01T16:07:26.881Z,14.30
2022-11-01T16:09:58.650Z,14.20
2022-11-01T16:12:32.187Z,14.10
2022-11-01T16:15:04.228Z,14.10
2022-11-01T16:17:39.764Z,14.00
2022-11-01T16:20:28.836Z,14.00
2022-11-01T16:23:00.492Z,13.90
2022-11-01T16:25:30.504Z,13.90
2022-11-01T16:28:06.176Z,13.90
2022-11-01T16:30:40.721Z,13.90
2022-11-01T16:33:16.830Z,13.90
2022-11-01T16:35:46.251Z,13.80
2022-11-01T16:38:44.863Z,13.50
2022-11-01T16:41:20.409Z,13.60
2022-11-01T16:43:54.368Z,13.50
2022-11-01T16:46:24.656Z,13.50
2022-11-01T16:48:55.938Z,13.50
2022-11-01T16:51:26.998Z,13.40
2022-11-01T16:53:57.729Z,13.30
2022-11-01T16:56:36.588Z,13.20
2022-11-01T16:59:11.540Z,13.20
2022-11-01T17:01:39.943Z,13.10
2022-11-01T17:04:10.764Z,13.10
2022-11-01T17:06:39.761Z,13.10
2022-11-01T17:09:13.547Z,13.20
2022-11-01T17:11:45.258Z,13.00
2022-11-01T17:14:18.278Z,12.80
2022-11-01T17:16:48.348Z,12.90
2022-11-01T17:19:22.995Z,12.90
2022-11-01T17:21:52.363Z,13.00
2022-11-01T17:24:23.993Z,12.80
2022-11-01T17:26:54.195Z,12.80
2022-11-01T17:29:22.519Z,12.90
2022-11-01T17:31:50.895Z,12.70
2022-11-01T17:34:19.246Z,12.70
2022-11-01T17:36:50.330Z,12.50
2022-11-01T17:39:18.624Z,12.60
2022-11-01T17:41:48.228Z,12.60
2022-11-01T17:44:16.407Z,12.50
2022-11-01T17:46:44.665Z,12.70
2022-11-01T17:49:15.748Z,12.70
2022-11-01T17:51:44.390Z,12.60
2022-11-01T17:54:13.769Z,12.50
2022-11-01T17:56:42.052Z,12.60
2022-11-01T17:59:12.664Z,12.50
2022-11-01T18:01:42.749Z,12.40
2022-11-01T18:04:11.267Z,12.40
2022-11-01T18:06:40.822Z,12.40
2022-11-01T18:09:21.859Z,12.30
2022-11-01T18:11:54.739Z,12.30
2022-11-01T18:14:37.526Z,12.30
2022-11-01T18:17:20.746Z,12.20
2022-11-01T18:19:56.807Z,12.30
2022-11-01T18:22:43.201Z,12.30
2022-11-01T18:25:25.637Z,12.30
2022-11-01T18:27:56.706Z,12.20
2022-11-01T18:30:27.062Z,12.10
2022-11-01T18:33:00.501Z,12.00
2022-11-01T18:35:34.457Z,11.90
2022-11-01T18:38:25.964Z,12.00
2022-11-01T18:41:00.296Z,12.10
2022-11-01T18:43:31.761Z,11.90
2022-11-01T18:46:23.812Z,12.00
2022-11-01T18:48:59.640Z,11.90
2022-11-01T18:51:31.503Z,11.90
2022-11-01T18:54:24.299Z,11.80
2022-11-01T18:56:54.736Z,11.80
2022-11-01T18:59:35.598Z,11.70
2022-11-01T19:02:15.838Z,11.70
2022-11-01T19:04:44.667Z,11.70
2022-11-01T19:07:15.114Z,11.70
2022-11-01T19:09:47.213Z,11.50
2022-11-01T19:12:20.648Z,11.60
2022-11-01T19:14:57.553Z,11.60
2022-11-01T19:17:30.070Z,11.40
2022-11-01T19:19:59.892Z,11.40
2022-11-01T19:22:38.264Z,11.40
2022-11-01T19:25:19.282Z,11.40
2022-11-01T19:27:49.185Z,11.40
2022-11-01T19:30:23.349Z,11.30
2022-11-01T19:32:55.087Z,11.40
2022-11-01T19:35:23.904Z,11.30
2022-11-01T19:37:54.670Z,11.20
2022-11-01T19:40:28.211Z,11.10
2022-11-01T19:43:01.031Z,11.20
2022-11-01T19:45:33.312Z,11.10
2022-11-01T19:48:05.836Z,11.20
2022-11-01T19:50:41.072Z,11.20
2022-11-01T19:53:20.215Z,11.20
2022-11-01T19:55:52.118Z,11.10
2022-11-01T19:58:35.751Z,11.10
2022-11-01T20:01:41.861Z,11.10
2022-11-01T20:04:27.198Z,11.00
2022-11-01T20:07:01.125Z,10.90
2022-11-01T20:09:31.535Z,10.90
2022-11-01T20:12:00.046Z,10.90
2022-11-01T20:14:28.939Z,11.00
2022-11-01T20:16:57.354Z,10.90
2022-11-01T20:19:26.970Z,10.90
2022-11-01T20:21:56.038Z,10.90
2022-11-01T20:24:24.262Z,10.70
2022-11-01T20:26:52.650Z,10.60
2022-11-01T20:29:21.673Z,10.70
2022-11-01T20:31:50.153Z,10.70
2022-11-01T20:34:18.448Z,10.60
2022-11-01T20:37:08.198Z,10.70
2022-11-01T20:39:38.113Z,10.60
2022-11-01T20:42:08.010Z,10.60
2022-11-01T20:44:36.337Z,10.50
2022-11-01T20:47:04.550Z,10.60
2022-11-01T20:49:33.411Z,10.60
2022-11-01T20:52:26.199Z,10.70
2022-11-01T20:54:52.385Z,10.60
2022-11-01T20:57:28.096Z,10.60
2022-11-01T20:59:57.154Z,10.50
2022-11-01T21:02:27.253Z,10.60
2022-11-01T21:05:02.422Z,10.60
2022-11-01T21:07:35.135Z,10.60
2022-11-01T21:10:04.063Z,10.60
2022-11-01T21:12:44.922Z,10.60
2022-11-01T21:15:35.387Z,10.60
2022-11-01T21:18:31.616Z,10.50
2022-11-01T21:21:02.762Z,10.50
2022-11-01T21:23:35.702Z,10.30
2022-11-01T21:26:11.830Z,10.30
2022-11-01T21:28:45.491Z,10.50
2022-11-01T21:31:27.049Z,10.50
2022-11-01T21:33:57.254Z,10.40
2022-11-01T21:36:31.072Z,10.40
2022-11-01T21:39:02.110Z,10.30
2022-11-01T21:41:34.560Z,10.40
2022-11-01T21:44:17.473Z,10.30
2022-11-01T21:46:49.014Z,10.40
2022-11-01T21:49:30.939Z,10.40
2022-11-01T21:52:02.216Z,10.30
2022-11-01T21:54:35.060Z,10.30
2022-11-01T21:57:04.518Z,10.30
2022-11-01T21:59:33.737Z,10.20
2022-11-01T22:02:03.264Z,10.10
2022-11-01T22:04:32.730Z,10.00
2022-11-01T22:07:02.823Z,10.10
2022-11-01T22:09:34.076Z,10.00
2022-11-01T22:12:02.947Z,10.00
2022-11-01T22:14:32.061Z,10.00
2022-11-01T22:17:01.050Z,10.00
2022-11-01T22:19:29.962Z,10.00
2022-11-01T22:21:58.319Z,10.00
2022-11-01T22:24:27.190Z,10.00
2022-11-01T22:26:57.454Z,10.00
2022-11-01T22:29:26.369Z,10.00
2022-11-01T22:31:54.623Z,10.10
2022-11-01T22:34:22.961Z,10.10
2022-11-01T22:36:51.859Z,10.20
2022-11-01T22:39:23.276Z,10.10
2022-11-01T22:41:52.382Z,10.10
2022-11-01T22:44:27.588Z,10.00
2022-11-01T22:46:59.229Z,10.10
2022-11-01T22:49:30.330Z,10.00
2022-11-01T22:52:03.926Z,9.90
2022-11-01T22:54:40.045Z,10.00
2022-11-01T22:57:15.793Z,10.00
2022-11-01T22:59:47.451Z,10.00
2022-11-01T23:02:30.066Z,9.90
2022-11-01T23:05:20.223Z,9.90
2022-11-01T23:07:50.335Z,9.90
2022-11-01T23:10:25.347Z,9.90
2022-11-01T23:13:17.233Z,9.90
2022-11-01T23:15:47.562Z,9.80
2022-11-01T23:18:25.030Z,9.70
2022-11-01T23:20:57.452Z,9.80
2022-11-01T23:23:26.483Z,9.80
2022-11-01T23:25:57.702Z,9.90
2022-11-01T23:28:26.066Z,9.80
2022-11-01T23:30:57.423Z,9.80
2022-11-01T23:33:28.803Z,9.90
2022-11-01T23:35:59.442Z,9.80
2022-11-01T23:38:35.747Z,9.90
2022-11-01T23:41:04.383Z,10.00
2022-11-01T23:43:37.093Z,10.00
2022-11-01T23:46:07.788Z,9.90
2022-11-01T23:48:41.482Z,9.90
2022-11-01T23:51:15.413Z,10.00
2022-11-01T23:53:45.121Z,10.00
2022-11-01T23:56:15.566Z,10.10
2022-11-01T23:58:43.804Z,10.10
